createdAt,value
2022-11-02T00:00:15.116Z,49.74
2022-11-02T00:01:15.151Z,47.97
2022-11-02T00:02:15.149Z,68.34
2022-11-02T00:03:15.083Z,60.44
2022-11-02T00:04:15.073Z,64.20
2022-11-02T00:05:15.063Z,47.15
2022-11-02T00:06:15.079Z,58.66
2022-11-02T00:07:15.049Z,58.45
2022-11-02T00:08:15.035Z,59.30
2022-11-02T00:09:15.030Z,59.59
2022-11-02T00:10:15.017Z,52.93
2022-11-02T00:11:15.038Z,45.38
2022-11-02T00:12:15.001Z,66.18
2022-11-02T00:13:14.994Z,53.74
2022-11-02T00:14:14.975Z,55.04
2022-11-02T00:15:15.001Z,62.84
2022-11-02T00:16:14.966Z,50.60
2022-11-02T00:17:14.955Z,45.09
2022-11-02T00:18:14.951Z,59.47
2022-11-02T00:19:14.940Z,59.05
2022-11-02T00:20:14.925Z,70.81
2022-11-02T00:21:14.952Z,50.36
2022-11-02T00:22:14.909Z,56.12
2022-11-02T00:23:14.912Z,48.29
2022-11-02T00:24:14.892Z,47.28
2022-11-02T00:25:14.888Z,60.77
2022-11-02T00:26:14.906Z,57.36
2022-11-02T00:27:16.014Z,51.47
2022-11-02T00:28:15.999Z,49.80
2022-11-02T00:29:15.993Z,56.15
2022-11-02T00:30:15.986Z,62.29
2022-11-02T00:31:16.010Z,49.90
2022-11-02T00:32:15.968Z,43.11
2022-11-02T00:33:15.964Z,46.74
2022-11-02T00:34:15.950Z,42.98
2022-11-02T00:35:15.944Z,48.41
2022-11-02T00:36:15.966Z,41.21
2022-11-02T00:37:15.921Z,44.70
2022-11-02T00:38:15.912Z,49.25
2022-11-02T00:39:15.904Z,46.33
2022-11-02T00:40:15.896Z,62.34
2022-11-02T00:41:15.912Z,53.35
2022-11-02T00:42:15.879Z,58.41
2022-11-02T00:43:15.872Z,54.13
2022-11-02T00:44:15.867Z,56.68
2022-11-02T00:45:15.852Z,62.21
2022-11-02T00:46:15.871Z,45.00
2022-11-02T00:47:15.835Z,41.30
2022-11-02T00:48:15.832Z,50.33
2022-11-02T00:49:15.821Z,43.13
2022-11-02T00:50:15.815Z,41.22
2022-11-02T00:51:15.827Z,40.64
2022-11-02T00:52:15.794Z,41.48
2022-11-02T00:53:15.783Z,45.05
2022-11-02T00:54:15.784Z,45.72
2022-11-02T00:55:15.766Z,49.08
2022-11-02T00:56:15.799Z,65.30
2022-11-02T00:57:15.756Z,56.56
2022-11-02T00:58:15.752Z,59.81
2022-11-02T00:59:15.735Z,56.96
2022-11-02T01:00:15.736Z,54.33
2022-11-02T01:01:15.891Z,42.25
2022-11-02T01:02:15.807Z,42.25
2022-11-02T01:03:15.710Z,47.64
2022-11-02T01:04:15.699Z,56.51
2022-11-02T01:05:15.683Z,53.17
2022-11-02T01:06:15.775Z,46.00
2022-11-02T01:07:15.667Z,58.14
2022-11-02T01:08:15.659Z,55.02
2022-11-02T01:09:15.644Z,45.91
2022-11-02T01:10:15.635Z,55.89
2022-11-02T01:11:15.662Z,62.57
2022-11-02T01:12:15.617Z,62.59
2022-11-02T01:13:15.612Z,51.37
2022-11-02T01:14:15.608Z,51.92
2022-11-02T01:15:15.596Z,63.47
2022-11-02T01:16:15.613Z,61.48
2022-11-02T01:17:15.580Z,66.24
2022-11-02T01:18:15.568Z,57.68
2022-11-02T01:19:15.564Z,47.89
2022-11-02T01:20:15.555Z,50.19
2022-11-02T01:21:15.578Z,44.25
2022-11-02T01:22:15.537Z,55.11
2022-11-02T01:23:15.541Z,54.45
2022-11-02T01:24:15.528Z,53.21
2022-11-02T01:25:15.516Z,62.74
2022-11-02T01:26:15.541Z,55.21
2022-11-02T01:27:15.510Z,51.83
2022-11-02T01:28:15.494Z,65.98
2022-11-02T01:29:15.486Z,53.79
2022-11-02T01:30:15.468Z,59.43
2022-11-02T01:31:15.509Z,54.13
2022-11-02T01:32:15.453Z,65.83
2022-11-02T01:33:15.450Z,62.12
2022-11-02T01:34:15.442Z,57.00
2022-11-02T01:35:15.446Z,58.71
2022-11-02T01:36:15.535Z,57.40
2022-11-02T01:37:15.415Z,62.74
2022-11-02T01:38:15.404Z,62.01
2022-11-02T01:39:15.400Z,60.54
2022-11-02T01:40:15.388Z,66.12
2022-11-02T01:41:15.415Z,59.20
2022-11-02T01:42:15.370Z,55.71
2022-11-02T01:43:15.364Z,53.94
2022-11-02T01:44:15.357Z,66.71
2022-11-02T01:45:15.348Z,64.59
2022-11-02T01:46:15.378Z,52.18
2022-11-02T01:47:15.330Z,44.65
2022-11-02T01:48:15.321Z,48.10
2022-11-02T01:49:15.318Z,57.20
2022-11-02T01:50:15.298Z,49.72
2022-11-02T01:51:15.337Z,55.91
2022-11-02T01:52:15.300Z,52.38
2022-11-02T01:53:15.289Z,50.81
2022-11-02T01:54:15.270Z,45.94
2022-11-02T01:55:15.262Z,51.92
2022-11-02T01:56:15.370Z,58.20
2022-11-02T01:57:15.273Z,60.28
2022-11-02T01:58:15.237Z,71.12
2022-11-02T01:59:15.237Z,66.11
2022-11-02T02:00:15.224Z,56.28
2022-11-02T02:01:15.311Z,47.32
2022-11-02T02:02:15.387Z,56.84
2022-11-02T02:03:15.200Z,47.85
2022-11-02T02:04:15.194Z,62.60
2022-11-02T02:05:15.176Z,53.51
2022-11-02T02:06:15.172Z,48.32
2022-11-02T02:07:15.180Z,51.13
2022-11-02T02:08:16.158Z,58.39
2022-11-02T02:09:15.151Z,53.20
2022-11-02T02:10:15.139Z,52.01
2022-11-02T02:11:15.143Z,51.84
2022-11-02T02:12:15.160Z,51.62
2022-11-02T02:13:15.118Z,63.56
2022-11-02T02:14:15.102Z,56.03
2022-11-02T02:15:15.096Z,59.78
2022-11-02T02:16:15.090Z,53.06
2022-11-02T02:17:15.114Z,58.20
2022-11-02T02:18:15.070Z,65.92
2022-11-02T02:19:15.063Z,54.41
2022-11-02T02:20:15.059Z,62.65
2022-11-02T02:21:15.043Z,56.53
2022-11-02T02:22:15.065Z,61.07
2022-11-02T02:23:15.036Z,57.03
2022-11-02T02:24:15.020Z,60.95
2022-11-02T02:25:15.029Z,58.51
2022-11-02T02:26:15.002Z,61.06
2022-11-02T02:27:15.033Z,51.09
2022-11-02T02:28:15.000Z,60.65
2022-11-02T02:29:14.976Z,51.81
2022-11-02T02:30:14.981Z,61.31
2022-11-02T02:31:14.963Z,58.95
2022-11-02T02:32:14.984Z,54.37
2022-11-02T02:33:14.942Z,60.05
2022-11-02T02:34:14.947Z,64.58
2022-11-02T02:35:14.927Z,52.82
2022-11-02T02:36:14.926Z,51.86
2022-11-02T02:37:14.945Z,44.18
2022-11-02T02:38:14.902Z,53.80
2022-11-02T02:39:14.894Z,66.04
2022-11-02T02:40:14.895Z,56.15
2022-11-02T02:41:14.900Z,55.00
2022-11-02T02:42:14.900Z,60.98
2022-11-02T02:43:14.863Z,68.77
2022-11-02T02:44:14.856Z,56.56
2022-11-02T02:45:14.835Z,45.08
2022-11-02T02:46:15.847Z,48.29
2022-11-02T02:47:14.860Z,43.23
2022-11-02T02:48:14.822Z,62.27
2022-11-02T02:49:14.812Z,60.09
2022-11-02T02:50:14.803Z,64.84
2022-11-02T02:51:14.815Z,57.52
2022-11-02T02:52:14.821Z,60.72
2022-11-02T02:53:14.790Z,56.51
2022-11-02T02:54:14.780Z,63.49
2022-11-02T02:55:14.774Z,53.88
2022-11-02T02:56:14.758Z,60.97
2022-11-02T02:57:14.774Z,50.42
2022-11-02T02:58:14.747Z,47.04
2022-11-02T02:59:14.738Z,65.19
2022-11-02T03:00:14.728Z,57.58
2022-11-02T03:01:14.780Z,46.34
2022-11-02T03:02:14.818Z,59.91
2022-11-02T03:03:14.699Z,60.67
2022-11-02T03:04:14.693Z,53.33
2022-11-02T03:05:14.691Z,60.27
2022-11-02T03:06:14.680Z,44.21
2022-11-02T03:07:14.707Z,52.61
2022-11-02T03:08:14.663Z,63.68
2022-11-02T03:09:14.647Z,59.09
2022-11-02T03:10:14.641Z,62.63
2022-11-02T03:11:14.636Z,69.60
2022-11-02T03:12:14.662Z,62.00
2022-11-02T03:13:14.628Z,57.52
2022-11-02T03:14:14.613Z,65.21
2022-11-02T03:15:14.601Z,63.36
2022-11-02T03:16:14.602Z,50.71
2022-11-02T03:17:14.584Z,67.42
2022-11-02T03:18:14.612Z,64.03
2022-11-02T03:19:14.572Z,62.20
2022-11-02T03:20:14.558Z,63.66
2022-11-02T03:21:14.559Z,54.83
2022-11-02T03:22:14.545Z,62.59
2022-11-02T03:23:14.566Z,56.25
2022-11-02T03:24:14.530Z,52.42
2022-11-02T03:25:14.518Z,59.62
2022-11-02T03:26:14.516Z,58.05
2022-11-02T03:27:14.533Z,58.89
2022-11-02T03:28:14.519Z,63.08
2022-11-02T03:29:14.482Z,50.74
2022-11-02T03:30:14.474Z,57.86
2022-11-02T03:31:14.472Z,55.44
2022-11-02T03:32:14.484Z,58.68
2022-11-02T03:33:14.449Z,60.70
2022-11-02T03:34:14.448Z,47.99
2022-11-02T03:35:14.434Z,57.71
2022-11-02T03:36:14.428Z,59.59
2022-11-02T03:37:14.481Z,67.54
2022-11-02T03:38:14.413Z,62.32
2022-11-02T03:39:14.405Z,64.95
2022-11-02T03:40:14.392Z,69.81
2022-11-02T03:41:14.386Z,58.71
2022-11-02T03:42:14.397Z,62.09
2022-11-02T03:43:14.367Z,59.70
2022-11-02T03:44:14.360Z,61.54
2022-11-02T03:45:14.387Z,71.95
2022-11-02T03:46:14.345Z,65.23
2022-11-02T03:47:14.354Z,64.86
2022-11-02T03:48:15.324Z,61.06
2022-11-02T03:49:14.312Z,63.10
2022-11-02T03:50:14.304Z,60.12
2022-11-02T03:51:14.298Z,63.43
2022-11-02T03:52:14.328Z,61.88
2022-11-02T03:53:14.289Z,57.40
2022-11-02T03:54:14.279Z,59.51
2022-11-02T03:55:14.266Z,61.27
2022-11-02T03:56:14.269Z,57.87
2022-11-02T03:57:14.280Z,58.55
2022-11-02T03:58:14.240Z,66.18
2022-11-02T03:59:14.237Z,64.59
2022-11-02T04:00:14.222Z,58.85
2022-11-02T04:01:14.272Z,57.28
2022-11-02T04:02:14.357Z,58.05
2022-11-02T04:03:14.196Z,67.75
2022-11-02T04:04:14.190Z,58.30
2022-11-02T04:05:14.181Z,61.56
2022-11-02T04:06:14.206Z,66.74
2022-11-02T04:07:14.197Z,60.33
2022-11-02T04:08:14.178Z,70.38
2022-11-02T04:09:14.163Z,63.38
2022-11-02T04:10:14.166Z,60.45
2022-11-02T04:11:14.130Z,67.65
2022-11-02T04:12:14.167Z,63.89
2022-11-02T04:13:14.110Z,58.47
2022-11-02T04:14:14.151Z,65.38
2022-11-02T04:15:14.100Z,68.20
2022-11-02T04:16:14.088Z,64.47
2022-11-02T04:17:14.084Z,61.60
2022-11-02T04:18:14.143Z,63.95
2022-11-02T04:19:14.076Z,66.65
2022-11-02T04:20:14.077Z,65.82
2022-11-02T04:21:14.045Z,67.33
2022-11-02T04:22:14.037Z,67.28
2022-11-02T04:23:14.062Z,64.04
2022-11-02T04:24:14.024Z,71.24
2022-11-02T04:25:14.017Z,63.94
2022-11-02T04:26:14.130Z,63.42
2022-11-02T04:27:18.114Z,66.49
2022-11-02T04:28:16.014Z,63.74
2022-11-02T04:29:13.982Z,67.96
2022-11-02T04:30:13.979Z,63.27
2022-11-02T04:31:13.967Z,65.71
2022-11-02T04:32:13.962Z,68.29
2022-11-02T04:33:13.986Z,63.87
2022-11-02T04:34:13.944Z,70.87
2022-11-02T04:35:13.939Z,69.51
2022-11-02T04:36:13.926Z,65.10
2022-11-02T04:37:13.930Z,68.57
2022-11-02T04:38:13.936Z,62.14
2022-11-02T04:39:13.898Z,62.23
2022-11-02T04:40:13.894Z,66.82
2022-11-02T04:41:13.879Z,69.28
2022-11-02T04:42:13.876Z,64.72
2022-11-02T04:43:13.887Z,68.07
2022-11-02T04:44:13.854Z,68.71
2022-11-02T04:45:13.847Z,72.10
2022-11-02T04:46:13.840Z,62.91
2022-11-02T04:47:13.834Z,68.45
2022-11-02T04:48:13.848Z,71.25
2022-11-02T04:49:13.809Z,63.88
2022-11-02T04:50:13.796Z,65.52
2022-11-02T04:51:13.796Z,67.33
2022-11-02T04:52:13.786Z,66.69
2022-11-02T04:53:13.810Z,70.67
2022-11-02T04:54:13.771Z,65.23
2022-11-02T04:55:13.761Z,70.89
2022-11-02T04:56:13.754Z,64.22
2022-11-02T04:57:13.744Z,62.98
2022-11-02T04:58:13.763Z,65.27
2022-11-02T04:59:13.734Z,68.46
2022-11-02T05:00:13.721Z,59.42
2022-11-02T05:01:13.740Z,70.03
2022-11-02T05:02:13.806Z,68.10
2022-11-02T05:03:13.726Z,70.67
2022-11-02T05:04:13.683Z,66.32
2022-11-02T05:05:13.693Z,69.79
2022-11-02T05:06:13.668Z,70.43
2022-11-02T05:07:13.659Z,67.94
2022-11-02T05:08:13.692Z,67.54
2022-11-02T05:09:13.645Z,70.20
2022-11-02T05:10:13.648Z,68.45
2022-11-02T05:11:13.625Z,63.48
2022-11-02T05:12:13.642Z,66.65
2022-11-02T05:13:13.607Z,72.92
2022-11-02T05:14:13.631Z,67.15
2022-11-02T05:15:13.597Z,65.14
2022-11-02T05:16:13.592Z,69.17
2022-11-02T05:17:13.583Z,70.28
2022-11-02T05:18:18.466Z,68.36
2022-11-02T05:19:15.590Z,61.46
2022-11-02T05:20:13.558Z,71.43
2022-11-02T05:21:13.548Z,70.09
2022-11-02T05:22:13.545Z,67.67
2022-11-02T05:23:13.532Z,68.03
2022-11-02T05:24:13.551Z,69.88
2022-11-02T05:25:13.515Z,69.70
2022-11-02T05:26:13.503Z,68.00
2022-11-02T05:27:13.496Z,67.65
2022-11-02T05:28:13.516Z,71.35
2022-11-02T05:29:13.516Z,66.79
2022-11-02T05:30:13.476Z,70.87
2022-11-02T05:31:13.449Z,70.57
2022-11-02T05:32:14.466Z,69.67
2022-11-02T05:33:13.448Z,71.36
2022-11-02T05:34:13.483Z,71.17
2022-11-02T05:35:13.439Z,68.85
2022-11-02T05:36:13.421Z,66.09
2022-11-02T05:37:13.410Z,69.67
2022-11-02T05:38:13.407Z,72.06
2022-11-02T05:39:13.477Z,71.31
2022-11-02T05:40:13.394Z,68.18
2022-11-02T05:41:13.384Z,66.78
2022-11-02T05:42:13.358Z,71.02
2022-11-02T05:43:14.365Z,72.51
2022-11-02T05:44:13.408Z,70.54
2022-11-02T05:45:13.345Z,70.63
2022-11-02T05:46:13.339Z,69.34
2022-11-02T05:47:14.344Z,71.58
2022-11-02T05:48:13.321Z,69.51
2022-11-02T05:49:13.344Z,70.85
2022-11-02T05:50:13.300Z,67.24
2022-11-02T05:51:13.284Z,73.38
2022-11-02T05:52:14.296Z,68.14
2022-11-02T05:53:13.275Z,71.95
2022-11-02T05:54:13.299Z,67.76
2022-11-02T05:55:13.268Z,72.06
2022-11-02T05:56:13.246Z,70.33
2022-11-02T05:57:13.241Z,70.86
2022-11-02T05:58:13.232Z,74.26
2022-11-02T05:59:13.253Z,70.97
2022-11-02T06:00:13.221Z,68.24
2022-11-02T06:01:13.277Z,73.78
2022-11-02T06:02:13.199Z,70.13
2022-11-02T06:03:13.186Z,71.89
2022-11-02T06:04:13.252Z,70.07
2022-11-02T06:05:13.211Z,70.34
2022-11-02T06:06:13.173Z,68.47
2022-11-02T06:07:13.150Z,70.11
2022-11-02T06:08:13.166Z,71.35
2022-11-02T06:09:13.165Z,70.09
2022-11-02T06:10:13.135Z,73.05
2022-11-02T06:11:13.123Z,70.01
2022-11-02T06:12:13.113Z,68.44
2022-11-02T06:13:13.103Z,70.10
2022-11-02T06:14:13.129Z,70.50
2022-11-02T06:15:13.089Z,73.14
2022-11-02T06:16:13.092Z,71.26
2022-11-02T06:17:13.075Z,71.24
2022-11-02T06:18:13.062Z,67.24
2022-11-02T06:19:16.168Z,72.31
2022-11-02T06:20:14.044Z,72.70
2022-11-02T06:21:13.038Z,72.33
2022-11-02T06:22:13.032Z,72.87
2022-11-02T06:23:13.057Z,72.98
2022-11-02T06:24:13.015Z,69.66
2022-11-02T06:25:13.009Z,68.62
2022-11-02T06:26:12.995Z,69.54
2022-11-02T06:27:12.988Z,70.41
2022-11-02T06:28:13.015Z,73.49
2022-11-02T06:29:12.979Z,70.15
2022-11-02T06:30:12.960Z,73.08
2022-11-02T06:31:12.955Z,72.38
2022-11-02T06:32:12.945Z,70.35
2022-11-02T06:33:13.416Z,69.22
2022-11-02T06:34:12.956Z,70.78
2022-11-02T06:35:12.923Z,70.48
2022-11-02T06:36:12.913Z,71.14
2022-11-02T06:37:12.900Z,70.76
2022-11-02T06:38:12.924Z,69.22
2022-11-02T06:39:12.893Z,64.90
2022-11-02T06:40:12.877Z,67.40
2022-11-02T06:41:12.873Z,67.06
2022-11-02T06:42:12.856Z,67.27
2022-11-02T06:43:17.448Z,73.95
2022-11-02T06:44:14.846Z,70.53
2022-11-02T06:45:12.835Z,70.16
2022-11-02T06:46:12.829Z,70.55
2022-11-02T06:47:12.825Z,70.61
2022-11-02T06:48:12.843Z,72.19
2022-11-02T06:49:12.797Z,71.67
2022-11-02T06:50:12.792Z,72.57
2022-11-02T06:51:12.790Z,71.71
2022-11-02T06:52:12.770Z,73.79
2022-11-02T06:53:12.795Z,74.16
2022-11-02T06:54:12.769Z,66.95
2022-11-02T06:55:12.751Z,69.99
2022-11-02T06:56:12.735Z,70.48
2022-11-02T06:57:12.742Z,71.06
2022-11-02T06:58:12.798Z,71.91
2022-11-02T06:59:12.717Z,67.02
2022-11-02T07:00:14.477Z,65.00
2022-11-02T07:01:12.827Z,69.71
2022-11-02T07:02:12.749Z,70.33
2022-11-02T07:03:12.712Z,72.77
2022-11-02T07:04:12.674Z,67.64
2022-11-02T07:05:13.675Z,68.66
2022-11-02T07:06:14.429Z,69.93
2022-11-02T07:07:13.649Z,74.06
2022-11-02T07:08:12.670Z,67.36
2022-11-02T07:09:12.636Z,65.30
2022-11-02T07:10:12.627Z,67.63
2022-11-02T07:11:12.618Z,69.03
2022-11-02T07:12:12.611Z,68.86
2022-11-02T07:13:12.632Z,72.28
2022-11-02T07:14:12.592Z,68.08
2022-11-02T07:15:12.591Z,71.77
2022-11-02T07:16:12.590Z,71.34
2022-11-02T07:17:12.572Z,68.38
2022-11-02T07:18:12.583Z,71.06
2022-11-02T07:19:12.549Z,70.93
2022-11-02T07:20:12.541Z,65.86
2022-11-02T07:21:12.561Z,69.84
2022-11-02T07:22:12.526Z,69.22
2022-11-02T07:23:12.544Z,70.66
2022-11-02T07:24:12.506Z,73.70
2022-11-02T07:25:12.503Z,69.12
2022-11-02T07:26:12.511Z,69.05
2022-11-02T07:27:12.483Z,72.20
2022-11-02T07:28:12.506Z,72.58
2022-11-02T07:29:12.480Z,69.25
2022-11-02T07:30:12.455Z,65.77
2022-11-02T07:31:12.451Z,71.16
2022-11-02T07:32:12.440Z,71.63
2022-11-02T07:33:12.467Z,66.77
2022-11-02T07:34:16.677Z,65.43
2022-11-02T07:35:13.420Z,70.12
2022-11-02T07:36:12.406Z,71.16
2022-11-02T07:37:12.405Z,71.39
2022-11-02T07:38:12.411Z,68.72
2022-11-02T07:39:13.379Z,71.68
2022-11-02T07:40:12.375Z,71.04
2022-11-02T07:41:12.369Z,70.65
2022-11-02T07:42:12.360Z,70.85
2022-11-02T07:43:12.375Z,69.41
2022-11-02T07:44:12.353Z,67.25
2022-11-02T07:45:12.334Z,69.17
2022-11-02T07:46:12.319Z,72.49
2022-11-02T07:47:12.309Z,70.22
2022-11-02T07:48:12.333Z,61.27
2022-11-02T07:49:13.100Z,65.32
2022-11-02T07:50:12.294Z,66.48
2022-11-02T07:51:12.280Z,67.24
2022-11-02T07:52:12.276Z,70.56
2022-11-02T07:53:12.298Z,67.46
2022-11-02T07:54:12.256Z,69.21
2022-11-02T07:55:12.247Z,69.69
2022-11-02T07:56:12.236Z,67.48
2022-11-02T07:57:12.228Z,70.13
2022-11-02T07:58:12.251Z,71.63
2022-11-02T07:59:12.212Z,58.68
2022-11-02T08:00:12.209Z,67.83
2022-11-02T08:01:12.240Z,67.10
2022-11-02T08:02:12.199Z,69.81
2022-11-02T08:03:12.552Z,71.07
2022-11-02T08:04:12.220Z,67.57
2022-11-02T08:05:12.162Z,66.15
2022-11-02T08:06:12.148Z,70.54
2022-11-02T08:07:12.153Z,69.73
2022-11-02T08:08:12.168Z,66.34
2022-11-02T08:09:12.132Z,65.95
2022-11-02T08:10:12.119Z,70.31
2022-11-02T08:11:12.114Z,72.74
2022-11-02T08:12:12.102Z,68.34
2022-11-02T08:13:12.130Z,69.22
2022-11-02T08:14:12.092Z,69.54
2022-11-02T08:15:12.079Z,66.80
2022-11-02T08:16:12.071Z,66.57
2022-11-02T08:17:12.061Z,68.83
2022-11-02T08:18:12.095Z,71.11
2022-11-02T08:19:12.043Z,71.57
2022-11-02T08:20:12.035Z,69.13
2022-11-02T08:21:12.039Z,68.51
2022-11-02T08:22:12.016Z,67.86
2022-11-02T08:23:12.037Z,71.75
2022-11-02T08:24:12.002Z,68.16
2022-11-02T08:25:12.019Z,67.79
2022-11-02T08:26:11.991Z,64.33
2022-11-02T08:27:11.974Z,71.55
2022-11-02T08:28:11.993Z,71.79
2022-11-02T08:29:11.958Z,67.02
2022-11-02T08:30:11.951Z,67.97
2022-11-02T08:31:11.939Z,70.56
2022-11-02T08:32:11.930Z,67.94
2022-11-02T08:33:11.967Z,70.02
2022-11-02T08:34:11.931Z,65.65
2022-11-02T08:35:11.908Z,69.42
2022-11-02T08:36:12.908Z,69.23
2022-11-02T08:37:11.899Z,64.77
2022-11-02T08:38:11.893Z,67.35
2022-11-02T08:39:17.494Z,68.63
2022-11-02T08:40:13.870Z,67.13
2022-11-02T08:41:11.863Z,70.32
2022-11-02T08:42:11.852Z,66.77
2022-11-02T08:43:11.856Z,65.01
2022-11-02T08:44:11.862Z,68.39
2022-11-02T08:45:11.828Z,66.92
2022-11-02T08:46:16.591Z,69.04
2022-11-02T08:47:13.810Z,62.62
2022-11-02T08:48:11.802Z,66.82
2022-11-02T08:49:11.828Z,68.22
2022-11-02T08:50:11.787Z,69.18
2022-11-02T08:51:11.777Z,68.52
2022-11-02T08:52:11.792Z,64.63
2022-11-02T08:53:11.766Z,67.92
2022-11-02T08:54:11.783Z,68.99
2022-11-02T08:55:11.748Z,70.17
2022-11-02T08:56:11.742Z,65.82
2022-11-02T08:57:11.737Z,70.62
2022-11-02T08:58:11.722Z,68.17
2022-11-02T08:59:11.744Z,68.04
2022-11-02T09:00:11.709Z,70.41
2022-11-02T09:01:11.749Z,67.23
2022-11-02T09:02:11.826Z,68.46
2022-11-02T09:03:11.674Z,68.95
2022-11-02T09:04:11.697Z,66.03
2022-11-02T09:05:11.655Z,70.71
2022-11-02T09:06:11.653Z,71.14
2022-11-02T09:07:11.645Z,71.23
2022-11-02T09:08:11.688Z,66.64
2022-11-02T09:09:11.660Z,66.01
2022-11-02T09:10:11.619Z,64.56
2022-11-02T09:11:11.638Z,69.31
2022-11-02T09:12:11.602Z,71.67
2022-11-02T09:13:11.599Z,67.76
2022-11-02T09:14:11.681Z,68.08
2022-11-02T09:15:11.585Z,68.33
2022-11-02T09:16:11.576Z,65.21
2022-11-02T09:17:11.566Z,70.30
2022-11-02T09:18:11.575Z,69.63
2022-11-02T09:19:11.580Z,67.54
2022-11-02T09:20:11.544Z,67.27
2022-11-02T09:21:11.538Z,67.92
2022-11-02T09:22:11.523Z,67.96
2022-11-02T09:23:11.512Z,64.80
2022-11-02T09:24:11.528Z,65.38
2022-11-02T09:25:11.512Z,64.63
2022-11-02T09:26:11.484Z,68.93
2022-11-02T09:27:11.486Z,68.41
2022-11-02T09:28:11.692Z,67.65
2022-11-02T09:29:11.551Z,65.39
2022-11-02T09:30:11.453Z,69.56
2022-11-02T09:31:11.938Z,70.79
2022-11-02T09:32:11.438Z,69.10
2022-11-02T09:33:12.436Z,67.52
2022-11-02T09:34:11.456Z,67.88
2022-11-02T09:35:11.419Z,67.33
2022-11-02T09:36:11.409Z,67.43
2022-11-02T09:37:11.402Z,67.11
2022-11-02T09:38:11.393Z,66.75
2022-11-02T09:39:11.390Z,68.12
2022-11-02T09:40:11.405Z,67.26
2022-11-02T09:41:11.374Z,67.27
2022-11-02T09:42:11.360Z,67.26
2022-11-02T09:43:11.351Z,66.11
2022-11-02T09:44:11.344Z,68.90
2022-11-02T09:45:11.363Z,60.10
2022-11-02T09:46:11.342Z,69.71
2022-11-02T09:47:56.290Z,67.76
2022-11-02T09:48:19.704Z,66.27
2022-11-02T09:49:13.303Z,66.60
2022-11-02T09:50:11.374Z,69.23
2022-11-02T09:51:11.285Z,69.02
2022-11-02T09:52:11.276Z,69.70
2022-11-02T09:53:11.272Z,66.51
2022-11-02T09:54:13.242Z,70.09
2022-11-02T09:55:12.284Z,71.28
2022-11-02T09:56:11.244Z,67.50
2022-11-02T09:57:11.248Z,65.88
2022-11-02T09:58:11.234Z,64.55
2022-11-02T09:59:11.226Z,68.35
2022-11-02T10:00:11.241Z,70.62
2022-11-02T10:01:11.232Z,68.31
2022-11-02T10:02:11.200Z,67.83
2022-11-02T10:03:11.192Z,66.11
2022-11-02T10:04:11.181Z,67.38
2022-11-02T10:05:11.198Z,66.30
2022-11-02T10:06:11.162Z,66.92
2022-11-02T10:07:11.153Z,66.34
2022-11-02T10:08:11.165Z,68.51
2022-11-02T10:09:11.133Z,69.50
2022-11-02T10:10:11.154Z,69.24
2022-11-02T10:11:11.115Z,64.50
2022-11-02T10:12:11.112Z,68.86
2022-11-02T10:13:11.117Z,70.79
2022-11-02T10:14:11.099Z,67.94
2022-11-02T10:15:11.121Z,67.65
2022-11-02T10:16:11.081Z,71.54
2022-11-02T10:17:11.079Z,67.11
2022-11-02T10:18:11.067Z,61.34
2022-11-02T10:19:11.052Z,70.04
2022-11-02T10:20:11.077Z,67.24
2022-11-02T10:21:11.039Z,60.56
2022-11-02T10:22:11.023Z,64.06
2022-11-02T10:23:11.009Z,65.68
2022-11-02T10:24:12.020Z,70.39
2022-11-02T10:25:11.031Z,70.86
2022-11-02T10:26:10.991Z,69.57
2022-11-02T10:27:14.124Z,67.25
2022-11-02T10:28:12.010Z,66.84
2022-11-02T10:29:10.972Z,70.49
2022-11-02T10:30:10.998Z,68.16
2022-11-02T10:31:15.497Z,71.24
2022-11-02T10:32:11.953Z,67.80
2022-11-02T10:33:10.946Z,66.42
2022-11-02T10:34:10.930Z,66.09
2022-11-02T10:35:31.249Z,64.66
2022-11-02T10:36:18.166Z,66.83
2022-11-02T10:37:12.908Z,70.33
2022-11-02T10:38:15.042Z,71.10
2022-11-02T10:39:11.892Z,69.23
2022-11-02T10:40:10.887Z,67.23
2022-11-02T10:41:10.906Z,67.83
2022-11-02T10:42:10.868Z,70.91
2022-11-02T10:43:10.854Z,67.99
2022-11-02T10:44:10.854Z,62.37
2022-11-02T10:45:10.834Z,70.14
2022-11-02T10:46:10.863Z,69.26
2022-11-02T10:47:10.824Z,67.90
2022-11-02T10:48:10.818Z,64.46
2022-11-02T10:49:10.816Z,66.39
2022-11-02T10:50:12.472Z,65.89
2022-11-02T10:51:11.818Z,69.94
2022-11-02T10:52:10.782Z,65.78
2022-11-02T10:53:35.337Z,66.67
2022-11-02T10:54:12.772Z,60.99
2022-11-02T10:55:10.834Z,63.24
2022-11-02T10:56:10.776Z,71.46
2022-11-02T10:57:10.749Z,69.98
2022-11-02T10:58:10.739Z,69.74
2022-11-02T10:59:10.724Z,65.86
2022-11-02T11:00:10.714Z,70.90
2022-11-02T11:01:10.846Z,63.53
2022-11-02T11:02:10.732Z,65.04
2022-11-02T11:03:10.685Z,63.63
2022-11-02T11:04:10.679Z,69.41
2022-11-02T11:05:10.674Z,66.56
2022-11-02T11:06:10.691Z,66.34
2022-11-02T11:07:10.662Z,67.67
2022-11-02T11:08:10.648Z,66.62
2022-11-02T11:09:10.644Z,70.03
2022-11-02T11:10:10.660Z,68.56
2022-11-02T11:11:10.630Z,64.97
2022-11-02T11:12:10.617Z,69.15
2022-11-02T11:16:16.326Z,68.16
2022-11-02T11:20:12.577Z,66.35
2022-11-02T11:21:10.555Z,64.52
2022-11-02T11:22:10.536Z,64.01
2022-11-02T11:23:10.529Z,69.50
2022-11-02T11:24:10.555Z,65.36
2022-11-02T11:25:10.553Z,69.12
2022-11-02T11:26:10.510Z,67.58
2022-11-02T11:27:10.496Z,65.09
2022-11-02T11:28:10.489Z,66.73
2022-11-02T11:29:10.478Z,65.54
2022-11-02T11:30:10.539Z,64.61
2022-11-02T11:31:10.465Z,68.47
2022-11-02T11:32:10.459Z,63.23
2022-11-02T11:33:10.446Z,64.02
2022-11-02T11:34:10.445Z,65.41
2022-11-02T11:35:10.436Z,67.80
2022-11-02T11:36:10.520Z,65.39
2022-11-02T11:37:10.427Z,68.40
2022-11-02T11:38:10.407Z,63.99
2022-11-02T11:39:10.398Z,64.46
2022-11-02T11:40:10.391Z,67.16
2022-11-02T11:41:10.410Z,69.11
2022-11-02T11:42:10.371Z,64.09
2022-11-02T11:43:10.392Z,64.98
2022-11-02T11:44:10.359Z,65.79
2022-11-02T11:45:10.354Z,68.16
2022-11-02T11:46:10.385Z,67.67
2022-11-02T11:47:10.337Z,68.48
2022-11-02T11:48:10.327Z,70.21
2022-11-02T11:49:10.326Z,69.37
2022-11-02T11:50:13.805Z,66.73
2022-11-02T11:51:11.332Z,68.72
2022-11-02T11:52:10.303Z,68.90
2022-11-02T11:53:10.288Z,70.40
2022-11-02T11:54:10.282Z,69.64
2022-11-02T11:55:10.288Z,68.95
2022-11-02T11:56:10.387Z,68.81
2022-11-02T11:57:10.260Z,69.24
2022-11-02T11:58:10.250Z,63.96
2022-11-02T11:59:10.241Z,70.64
2022-11-02T12:00:10.236Z,68.53
2022-11-02T12:01:11.056Z,67.10
2022-11-02T12:02:10.492Z,63.72
2022-11-02T12:03:10.614Z,69.27
2022-11-02T12:04:10.201Z,69.78
2022-11-02T12:05:10.212Z,67.21
2022-11-02T12:06:10.212Z,65.99
2022-11-02T12:07:10.178Z,63.37
2022-11-02T12:08:10.595Z,68.22
2022-11-02T12:09:10.160Z,61.51
2022-11-02T12:10:10.159Z,67.53
2022-11-02T12:11:13.736Z,65.76
2022-11-02T12:12:11.139Z,67.07
2022-11-02T12:13:10.129Z,67.83
2022-11-02T12:14:10.121Z,68.58
2022-11-02T12:15:10.116Z,69.42
2022-11-02T12:16:10.134Z,63.79
2022-11-02T12:17:10.098Z,65.50
2022-11-02T12:18:10.091Z,65.43
2022-11-02T12:19:10.088Z,69.44
2022-11-02T12:20:10.075Z,66.97
2022-11-02T12:21:10.099Z,72.23
2022-11-02T12:22:10.059Z,65.33
2022-11-02T12:23:10.062Z,67.19
2022-11-02T12:24:10.042Z,69.86
2022-11-02T12:25:10.035Z,66.48
2022-11-02T12:26:10.076Z,68.66
2022-11-02T12:27:10.016Z,68.11
2022-11-02T12:28:10.059Z,70.68
2022-11-02T12:29:10.004Z,69.45
2022-11-02T12:30:09.994Z,69.65
2022-11-02T12:31:10.024Z,65.76
2022-11-02T12:32:09.971Z,69.75
2022-11-02T12:33:10.986Z,66.43
2022-11-02T12:34:09.965Z,68.97
2022-11-02T12:36:11.988Z,63.69
2022-11-02T12:37:35.359Z,65.77
2022-11-02T12:38:11.964Z,68.96
2022-11-02T12:39:09.928Z,69.93
2022-11-02T12:40:09.960Z,68.90
2022-11-02T12:41:09.950Z,66.05
2022-11-02T12:42:09.904Z,66.51
2022-11-02T12:43:09.920Z,64.16
2022-11-02T12:44:09.884Z,68.86
2022-11-02T12:45:09.880Z,68.27
2022-11-02T12:46:09.896Z,65.52
2022-11-02T12:47:09.876Z,66.08
2022-11-02T12:48:09.859Z,67.60
2022-11-02T12:49:09.844Z,67.34
2022-11-02T12:50:09.837Z,63.70
2022-11-02T12:51:09.863Z,56.79
2022-11-02T12:52:09.838Z,67.38
2022-11-02T12:53:09.817Z,70.13
2022-11-02T12:54:09.811Z,71.01
2022-11-02T12:55:13.232Z,70.53
2022-11-02T12:56:11.838Z,67.36
2022-11-02T12:57:09.792Z,66.33
2022-11-02T12:58:09.774Z,68.69
2022-11-02T12:59:09.765Z,66.46